Time;durP1;ratioP1;P1;durP2;ratioP2;P2;SDS_P1;SDS_P2;PMS_P1;PMS_P2;Temp;Humidity;BMP_temperature;BMP_pressure;BME280_temperature;BME280_humidity;BME280_pressure;Samples;Min_cycle;Max_cycle;Signal;HPM_P1;HPM_P2
2022/11/29 00:00:11;;;;;;;11.05;3.00;;;6.60;99.90;;;5.70;100.00;101337.63;4215113;28;20082;-79
2022/11/29 00:02:12;;;;;;;20.23;3.95;;;6.60;99.90;;;5.67;100.00;101320.38;4219853;28;20513;-79
2022/11/29 00:04:12;;;;;;;10.30;3.15;;;6.60;99.90;;;5.62;100.00;101330.31;4252598;27;20035;-79
2022/11/29 00:06:18;;;;;;;15.98;3.95;;;6.50;99.90;;;5.62;100.00;101326.84;4218626;28;20030;-79
2022/11/29 00:08:20;;;;;;;13.30;3.72;;;6.50;99.90;;;5.57;100.00;101325.44;4219859;28;20028;-79
2022/11/29 00:10:21;;;;;;;17.15;3.72;;;6.50;99.90;;;5.55;100.00;101324.69;4252298;27;20086;-80
2022/11/29 00:12:22;;;;;;;11.82;3.30;;;6.50;99.90;;;5.53;100.00;101326.56;4219901;28;20023;-79
2022/11/29 00:14:25;;;;;;;12.10;3.67;;;6.40;99.90;;;5.50;100.00;101318.94;4219848;28;20508;-80
2022/11/29 00:16:26;;;;;;;20.65;4.25;;;6.40;99.90;;;5.52;100.00;101326.69;4235365;28;20052;-80
2022/11/29 00:18:26;;;;;;;15.48;3.63;;;6.40;99.90;;;5.55;100.00;101337.75;4251454;27;20038;-80
2022/11/29 00:20:27;;;;;;;11.75;3.38;;;6.40;99.90;;;5.53;100.00;101334.44;4219574;28;20031;-80
2022/11/29 00:22:29;;;;;;;14.45;3.90;;;6.40;99.90;;;5.55;100.00;101336.94;4252151;27;20058;-80
2022/11/29 00:24:31;;;;;;;16.50;3.63;;;6.40;99.90;;;5.56;100.00;101333.38;4219641;28;20020;-80
2022/11/29 00:26:32;;;;;;;15.63;3.80;;;6.50;99.90;;;5.52;100.00;101331.94;4219531;28;20031;-80
2022/11/29 00:28:34;;;;;;;23.17;3.90;;;6.40;99.90;;;5.54;100.00;101340.50;4252514;27;20023;-80
2022/11/29 00:30:35;;;;;;;13.05;3.80;;;6.40;99.90;;;5.54;100.00;101341.34;4235121;28;20023;-80
2022/11/29 00:32:36;;;;;;;14.23;4.60;;;6.40;99.90;;;5.54;100.00;101335.28;4234472;28;20519;-80
2022/11/29 00:34:37;;;;;;;15.77;3.72;;;6.40;99.90;;;5.53;100.00;101341.44;4219125;28;20031;-80
2022/11/29 00:36:38;;;;;;;18.55;4.47;;;6.40;99.90;;;5.48;100.00;101336.53;4219538;28;20028;-80
2022/11/29 00:38:39;;;;;;;15.65;4.47;;;6.40;99.90;;;5.51;100.00;101345.94;4235041;28;20031;-79
2022/11/29 00:40:40;;;;;;;15.15;3.65;;;6.40;99.90;;;5.46;100.00;101343.69;4219393;28;20107;-80
2022/11/29 00:42:41;;;;;;;19.63;4.25;;;6.40;99.90;;;5.43;100.00;101345.66;4251869;27;20023;-80
2022/11/29 00:44:42;;;;;;;12.85;3.22;;;6.30;99.90;;;5.40;100.00;101346.72;4219458;28;20035;-80
2022/11/29 00:46:43;;;;;;;13.98;3.13;;;6.30;99.90;;;5.33;100.00;101332.41;4218058;28;20533;-80
2022/11/29 00:48:44;;;;;;;14.05;3.67;;;6.30;99.90;;;5.33;100.00;101340.25;4218169;28;20103;-79
2022/11/29 00:50:44;;;;;;;16.65;4.30;;;6.20;99.90;;;5.30;100.00;101345.69;4234539;28;20058;-79
2022/11/29 00:52:45;;;;;;;16.85;3.40;;;6.20;99.90;;;5.24;100.00;101343.50;4219308;28;20559;-80
2022/11/29 00:54:46;;;;;;;18.63;3.70;;;6.20;99.90;;;5.21;100.00;101340.25;4219361;28;20035;-80
2022/11/29 00:56:47;;;;;;;15.45;4.00;;;6.20;99.90;;;5.24;100.00;101347.91;4251873;27;20023;-80
2022/11/29 00:58:48;;;;;;;14.98;3.92;;;6.10;99.90;;;5.21;100.00;101348.09;4217816;28;20032;-80
2022/11/29 01:00:51;;;;;;;13.13;3.95;;;6.10;99.90;;;5.17;100.00;101331.78;4252041;27;20120;-80
2022/11/29 01:02:52;;;;;;;14.38;3.92;;;6.10;99.90;;;5.15;100.00;101338.91;4251517;27;20417;-80
2022/11/29 01:04:52;;;;;;;13.73;3.83;;;6.10;99.90;;;5.16;100.00;101340.59;4218849;28;20039;-80
2022/11/29 01:06:53;;;;;;;20.88;4.28;;;6.10;99.90;;;5.15;100.00;101341.53;4217667;28;20031;-80
2022/11/29 01:08:54;;;;;;;14.65;3.58;;;6.10;99.90;;;5.19;100.00;101348.22;4217918;28;20020;-80
2022/11/29 01:11:09;;;;;;;18.95;4.70;;;6.10;99.90;;;5.19;100.00;101352.63;4219029;28;20391;-80
2022/11/29 01:13:10;;;;;;;;;;;6.10;99.90;;;5.18;100.00;101359.63;4250551;27;20019;-79
2022/11/29 01:15:11;;;;;;;18.85;4.18;;;6.20;99.90;;;5.19;100.00;101360.47;4217520;28;19915;-79
2022/11/29 01:17:12;;;;;;;22.20;5.18;;;6.10;99.90;;;5.18;100.00;101364.84;4251726;27;20030;-79
2022/11/29 01:19:13;;;;;;;21.77;4.90;;;6.20;99.90;;;5.17;100.00;101367.59;4216615;28;20028;-79
2022/11/29 01:21:21;;;;;;;18.83;4.55;;;6.20;99.90;;;5.14;100.00;101352.91;4217373;28;20074;-79
2022/11/29 01:23:22;;;;;;;24.15;6.45;;;6.10;99.90;;;5.16;100.00;101368.53;4234096;28;20085;-80
2022/11/29 01:25:23;;;;;;;18.92;4.88;;;6.10;99.90;;;5.16;100.00;101365.91;4218876;28;20032;-79
2022/11/29 01:27:23;;;;;;;18.25;5.15;;;6.10;99.90;;;5.16;100.00;101363.28;4218967;28;20536;-79
2022/11/29 01:29:24;;;;;;;19.27;5.00;;;6.20;99.90;;;5.13;100.00;101355.66;4218753;28;20039;-80
2022/11/29 01:31:34;;;;;;;21.55;5.30;;;6.20;99.90;;;5.18;100.00;101369.25;4218588;28;20423;-79
2022/11/29 01:33:36;;;;;;;22.35;5.43;;;6.20;99.90;;;5.16;100.00;101371.13;4250270;27;20035;-80
2022/11/29 01:35:37;;;;;;;15.88;5.72;;;6.10;99.90;;;5.10;100.00;101367.16;4217304;28;20107;-80
2022/11/29 01:37:38;;;;;;;14.65;4.38;;;6.10;99.90;;;5.11;100.00;101371.44;4251247;27;20027;-80
2022/11/29 01:39:39;;;;;;;19.10;4.97;;;6.10;99.90;;;5.11;100.00;101368.81;4251323;27;20562;-80
2022/11/29 01:41:40;;;;;;;14.48;3.47;;;6.10;99.90;;;5.08;100.00;101370.84;4218659;28;20077;-80
2022/11/29 01:44:13;;;;;;;12.57;3.25;;;6.00;99.90;;;5.05;100.00;101371.84;4251195;27;20030;-80
2022/11/29 01:46:14;;;;;;;16.42;4.10;;;6.00;99.90;;;5.10;100.00;101376.78;4184797;28;20171;-80
2022/11/29 01:48:15;;;;;;;20.48;4.35;;;6.00;99.90;;;5.11;100.00;101363.59;4218631;28;20028;-80
2022/11/29 01:50:17;;;;;;;18.52;4.35;;;6.10;99.90;;;5.25;100.00;101380.97;4251018;28;20028;-80
2022/11/29 01:52:27;;;;;;;18.42;4.90;;;6.20;99.90;;;5.27;100.00;101371.22;4218448;28;20056;-80
2022/11/29 01:54:30;;;;;;;24.20;5.05;;;6.30;99.90;;;5.36;100.00;101383.66;4250663;28;20032;-79
2022/11/29 01:56:33;;;;;;;21.65;4.43;;;6.30;99.90;;;5.42;100.00;101378.84;4218614;28;20432;-79
2022/11/29 01:58:35;;;;;;;15.13;4.00;;;6.30;99.90;;;5.42;100.00;101381.47;4218539;28;20035;-79
2022/11/29 02:00:36;;;;;;;17.30;5.28;;;6.40;99.90;;;5.47;100.00;101387.19;4218382;28;20055;-79
2022/11/29 02:03:00;;;;;;;20.75;4.40;;;6.40;99.90;;;5.46;100.00;101385.53;4251140;28;20079;-79
2022/11/29 02:05:03;;;;;;;17.38;3.92;;;6.40;99.90;;;5.49;100.00;101389.72;4249997;28;20023;-80
2022/11/29 02:07:04;;;;;;;13.02;4.13;;;6.50;99.90;;;5.49;100.00;101390.56;4218200;28;20576;-80
2022/11/29 02:09:21;;;;;;;23.75;5.55;;;6.40;99.90;;;5.55;100.00;101386.66;4234025;28;20092;-80
2022/11/29 02:12:02;;;;;;;25.42;3.50;;;6.50;99.90;;;5.59;100.00;101394.19;4218467;28;20028;-79
2022/11/29 02:14:46;;;;;;;15.80;4.00;;;6.50;99.90;;;5.69;100.00;101404.00;4218414;28;20028;-80
2022/11/29 02:16:57;;;;;;;14.32;3.97;;;6.60;99.90;;;5.70;100.00;101403.06;4218209;28;20024;-80
2022/11/29 02:19:34;;;;;;;18.23;3.95;;;6.60;99.90;;;5.72;100.00;101404.63;4250093;28;20030;-79
2022/11/29 02:22:08;;;;;;;11.50;3.08;;;6.70;99.90;;;5.63;100.00;101401.81;4218235;28;20055;-80
2022/11/29 02:24:37;;;;;;;23.83;4.20;;;6.60;99.90;;;5.67;100.00;101408.53;4249037;28;20054;-79
2022/11/29 02:27:02;;;;;;;20.55;3.65;;;6.60;99.90;;;5.67;100.00;101401.50;4218175;28;20043;-80
2022/11/29 02:29:37;;;;;;;21.45;3.30;;;6.60;99.90;;;5.69;100.00;101412.69;4218253;28;20032;-80
2022/11/29 02:31:53;;;;;;;15.20;3.38;;;6.60;99.90;;;5.80;100.00;101409.31;4218299;28;20036;-80
2022/11/29 02:34:06;;;;;;;12.90;3.10;;;6.70;99.90;;;5.89;100.00;101416.53;4250874;28;20019;-79
2022/11/29 02:36:41;;;;;;;21.40;2.85;;;6.80;99.90;;;5.83;100.00;101415.16;4217840;28;20107;-80
2022/11/29 02:39:06;;;;;;;14.68;4.35;;;6.80;99.90;;;5.79;100.00;101416.34;4218284;28;20025;-79
2022/11/29 02:41:25;;;;;;;16.50;3.28;;;6.80;99.90;;;5.75;100.00;101420.13;4218064;28;20020;-79
2022/11/29 02:44:06;;;;;;;19.75;3.20;;;6.70;99.90;;;5.76;100.00;101420.97;4218262;28;20499;-79
2022/11/29 02:46:21;;;;;;;22.20;3.97;;;6.70;99.90;;;5.86;100.00;101414.13;4218090;28;20031;-79
2022/11/29 02:49:07;;;;;;;17.25;4.10;;;6.70;99.90;;;5.85;100.00;101415.94;4218182;28;20112;-79
2022/11/29 02:51:36;;;;;;;;;;;6.80;99.90;;;5.79;100.00;101415.50;4214344;28;20047;-80
2022/11/29 02:54:24;;;;;;;19.77;3.50;;;6.80;99.90;;;5.90;100.00;101421.69;4217074;28;20001;-79
2022/11/29 02:57:05;;;;;;;17.45;3.30;;;6.80;99.90;;;5.93;100.00;101425.84;4214236;28;20032;-80
2022/11/29 02:59:17;;;;;;;18.90;2.80;;;6.80;99.90;;;5.89;100.00;101413.91;4251737;27;20128;-80
2022/11/29 03:02:00;;;;;;;24.58;4.68;;;6.80;99.90;;;5.98;100.00;101418.50;4236233;28;20080;-80
2022/11/29 03:04:22;;;;;;;15.15;2.80;;;6.90;99.90;;;5.96;100.00;101426.47;4217913;28;20041;-80
2022/11/29 03:07:01;;;;;;;24.92;3.83;;;6.90;99.90;;;5.95;100.00;101424.78;4215611;28;20052;-79
2022/11/29 03:09:19;;;;;;;21.42;4.72;;;6.90;99.90;;;5.94;100.00;101420.50;4212314;28;20016;-80
2022/11/29 03:12:01;;;;;;;16.70;4.47;;;6.90;99.90;;;6.01;100.00;101416.50;4219915;28;20024;-79
2022/11/29 03:14:25;;;;;;;18.58;3.83;;;6.90;99.90;;;6.01;100.00;101413.88;4220981;28;20035;-78
2022/11/29 03:16:43;;;;;;;21.42;3.42;;;7.00;99.90;;;6.06;100.00;101418.81;4253324;27;20027;-80
2022/11/29 03:18:54;;;;;;;18.17;3.47;;;7.00;99.90;;;6.02;100.00;101419.97;4219963;28;20024;-79
2022/11/29 03:21:22;;;;;;;24.58;2.75;;;7.00;99.90;;;6.00;100.00;101414.81;4220568;28;20020;-80
2022/11/29 03:23:35;;;;;;;23.60;3.30;;;7.00;99.90;;;5.98;100.00;101418.50;4220576;28;20036;-80
2022/11/29 03:25:44;;;;;;;13.23;2.85;;;7.00;99.90;;;6.01;100.00;101420.91;4235280;28;20085;-79
2022/11/29 03:28:10;;;;;;;18.52;3.05;;;7.00;99.90;;;5.96;100.00;101420.41;4252561;27;20051;-79
2022/11/29 03:30:16;;;;;;;26.25;3.75;;;6.90;99.90;;;5.93;100.00;101425.84;4220838;28;20024;-80
2022/11/29 03:32:49;;;;;;;18.40;3.15;;;6.90;99.90;;;5.90;100.00;101420.84;4235733;28;20503;-79
2022/11/29 03:35:23;;;;;;;9.77;2.63;;;6.90;99.90;;;5.84;100.00;101422.09;4220501;28;20028;-79
2022/11/29 03:37:39;;;;;;;19.00;2.80;;;6.80;99.90;;;5.88;100.00;101422.75;4220465;28;20114;-79
2022/11/29 03:40:20;;;;;;;9.77;3.03;;;6.90;99.90;;;5.81;100.00;101421.47;4220684;28;20491;-80
2022/11/29 03:43:00;;;;;;;17.70;3.72;;;6.80;99.90;;;5.88;100.00;101423.59;4252172;27;20068;-79
2022/11/29 03:45:34;;;;;;;13.75;2.95;;;6.80;99.90;;;5.80;100.00;101420.63;4220505;28;20112;-79
2022/11/29 03:47:53;;;;;;;10.65;2.80;;;6.80;99.90;;;5.75;100.00;101427.13;4214729;27;20038;-80
2022/11/29 03:50:33;;;;;;;15.10;2.50;;;6.70;99.90;;;5.70;100.00;101439.72;4251606;27;20031;-79
2022/11/29 03:53:20;;;;;;;17.38;2.63;;;6.70;99.90;;;5.60;100.00;101436.91;4216544;28;20085;-80
2022/11/29 03:55:20;;;;;;;11.07;2.67;;;6.60;99.90;;;5.51;100.00;101440.16;4237767;27;20044;-80
2022/11/29 03:58:06;;;;;;;15.38;3.75;;;6.50;99.90;;;5.42;100.00;101440.78;4220600;28;20036;-80
2022/11/29 04:00:11;;;;;;;14.88;2.92;;;6.40;99.90;;;5.34;100.00;101443.09;4220148;28;20036;-80
2022/11/29 04:02:39;;;;;;;20.27;3.67;;;6.30;99.90;;;5.32;100.00;101440.56;4252388;27;20105;-79
2022/11/29 04:04:46;;;;;;;18.52;3.50;;;6.30;99.90;;;5.29;100.00;101448.63;4220016;28;20025;-79
2022/11/29 04:07:11;;;;;;;16.27;3.35;;;6.20;99.90;;;5.24;100.00;101453.34;4218833;28;20024;-79
2022/11/29 04:09:44;;;;;;;12.48;3.00;;;6.20;99.90;;;5.18;100.00;101459.00;4218578;28;20063;-79
2022/11/29 04:12:09;;;;;;;11.45;3.05;;;6.10;99.90;;;5.03;100.00;101460.03;4218750;28;20165;-79
2022/11/29 04:14:28;;;;;;;10.73;2.30;;;6.00;99.90;;;4.90;100.00;101451.31;4251337;27;20031;-79
2022/11/29 04:16:46;;;;;;;8.48;3.05;;;6.00;99.90;;;4.85;100.00;101461.25;4250571;27;20026;-79
2022/11/29 04:19:05;;;;;;;10.00;4.35;;;5.80;99.90;;;4.70;100.00;101463.09;4217665;28;20067;-79
2022/11/29 04:21:32;;;;;;;10.95;3.97;;;5.70;99.90;;;4.54;100.00;101465.03;4219416;28;20031;-78
2022/11/29 04:23:51;;;;;;;8.52;3.53;;;5.60;99.90;;;4.42;100.00;101464.06;4252618;27;20031;-79
2022/11/29 04:26:03;;;;;;;10.38;3.85;;;5.50;99.90;;;4.36;100.00;101466.25;4219782;28;20058;-79
2022/11/29 04:28:18;;;;;;;10.98;2.85;;;5.40;99.90;;;4.36;100.00;101461.03;4219559;28;20028;-78
2022/11/29 04:30:24;;;;;;;14.45;3.75;;;5.30;99.90;;;4.38;100.00;101461.75;4219961;28;20101;-79
2022/11/29 04:33:00;;;;;;;8.82;2.97;;;5.40;99.90;;;4.45;100.00;101465.63;4251457;27;20019;-80
2022/11/29 04:35:31;;;;;;;20.35;3.60;;;5.40;99.90;;;4.50;100.00;101466.19;4212235;28;20055;-79
2022/11/29 04:37:54;;;;;;;15.15;3.58;;;5.40;99.90;;;4.59;100.00;101468.22;4219458;28;20032;-79
2022/11/29 04:40:16;;;;;;;14.30;3.13;;;5.50;99.90;;;4.69;100.00;101476.28;4219818;28;20101;-79
2022/11/29 04:43:02;;;;;;;16.42;4.53;;;5.60;99.90;;;4.70;100.00;101473.56;4251564;27;20039;-79
2022/11/29 04:45:45;;;;;;;17.27;3.53;;;5.60;99.90;;;4.77;100.00;101466.16;4216807;28;20062;-79
2022/11/29 04:48:09;;;;;;;20.17;3.92;;;5.70;99.90;;;4.78;100.00;101480.91;4245265;27;20538;-79
2022/11/29 04:51:01;;;;;;;11.85;2.70;;;5.70;99.90;;;4.74;100.00;101475.03;4219143;28;20024;-79
2022/11/29 04:53:29;;;;;;;19.02;2.92;;;5.70;99.90;;;4.78;100.00;101480.91;4219477;28;20028;-79
2022/11/29 04:56:15;;;;;;;14.70;2.85;;;5.70;99.90;;;4.78;100.00;101480.91;4248844;27;20488;-79
2022/11/29 04:58:39;;;;;;;;;;;5.70;99.90;;;4.75;100.00;101481.13;4219717;28;20031;-80
2022/11/29 05:01:05;;;;;;;15.43;3.05;;;5.70;99.90;;;4.79;100.00;101487.81;4218801;28;19998;-79
2022/11/29 05:03:19;;;;;;;16.10;3.58;;;5.70;99.90;;;4.79;100.00;101482.56;4250609;27;20556;-79
2022/11/29 05:05:41;;;;;;;9.70;2.67;;;5.70;99.90;;;4.72;100.00;101479.50;4249753;27;20025;-79
2022/11/29 05:08:15;;;;;;;8.55;3.50;;;5.70;99.90;;;4.74;100.00;101487.28;4249618;27;20260;-78
2022/11/29 05:10:51;;;;;;;16.88;3.42;;;5.70;99.90;;;4.66;100.00;101481.72;4246047;27;20050;-79
2022/11/29 05:13:34;;;;;;;13.40;2.78;;;5.60;99.90;;;4.67;100.00;101496.44;4249388;27;20058;-79
2022/11/29 05:16:06;;;;;;;13.95;3.28;;;5.60;99.90;;;4.64;100.00;101488.81;4216812;27;20047;-79
2022/11/29 05:18:48;;;;;;;10.30;2.70;;;5.60;99.90;;;4.70;100.00;101504.06;4246562;27;20030;-79
2022/11/29 05:21:13;;;;;;;17.23;4.22;;;5.60;99.90;;;4.70;100.00;101494.47;4208989;28;20024;-79
2022/11/29 05:23:23;;;;;;;15.18;2.67;;;5.70;99.90;;;4.73;100.00;101488.19;4250199;27;20043;-79
2022/11/29 05:25:32;;;;;;;15.50;3.10;;;5.70;99.90;;;4.77;100.00;101485.31;4217488;28;20028;-79
2022/11/29 05:27:51;;;;;;;28.98;4.50;;;5.70;99.90;;;4.79;100.00;101491.25;4218813;28;20024;-78
2022/11/29 05:30:18;;;;;;;10.65;2.95;;;5.70;99.90;;;4.88;100.00;101498.50;4250307;27;20173;-78
2022/11/29 05:33:10;;;;;;;13.63;3.67;;;5.80;99.90;;;4.91;100.00;101500.06;4250161;27;20063;-79
2022/11/29 05:35:38;;;;;;;12.68;3.20;;;5.90;99.90;;;4.91;100.00;101507.91;4170955;28;20041;-78
2022/11/29 05:38:12;;;;;;;19.00;3.38;;;5.90;99.90;;;4.87;100.00;101506.41;4215727;28;20066;-79
2022/11/29 05:40:28;;;;;;;12.13;3.03;;;5.80;99.90;;;4.85;100.00;101503.06;4245401;27;20098;-79
2022/11/29 05:42:32;;;;;;;10.98;2.88;;;5.80;99.90;;;4.89;100.00;101505.41;4218596;28;20042;-78
2022/11/29 05:44:52;;;;;;;11.73;2.88;;;5.80;99.90;;;4.85;100.00;101509.16;4217133;28;20412;-79
2022/11/29 05:46:57;;;;;;;16.80;2.80;;;5.90;99.90;;;4.85;100.00;101518.75;4233087;28;20068;-78
2022/11/29 05:49:03;;;;;;;;;;;5.80;99.90;;;4.79;100.00;101524.38;4251211;27;20027;-79
2022/11/29 05:51:10;;;;;;;14.80;2.92;;;5.80;99.90;;;4.80;100.00;101531.31;4218492;28;19908;-79
2022/11/29 05:53:30;;;;;;;12.35;3.13;;;5.80;99.90;;;4.86;100.00;101536.13;4218774;28;20081;-79
2022/11/29 05:56:02;;;;;;;13.70;2.83;;;5.80;99.90;;;4.88;100.00;101540.31;4249125;27;20024;-79
2022/11/29 05:58:37;;;;;;;16.38;3.38;;;5.80;99.90;;;4.94;100.00;101546.91;4231505;28;20034;-79
2022/11/29 06:01:15;;;;;;;17.80;2.67;;;5.90;99.90;;;4.94;100.00;101549.53;4248176;28;20403;-79
2022/11/29 06:03:40;;;;;;;11.10;2.55;;;5.90;99.90;;;4.90;100.00;101548.88;4247305;28;20034;-80
2022/11/29 06:05:50;;;;;;;14.45;3.25;;;5.90;99.90;;;4.92;100.00;101554.03;4250117;28;20019;-79
2022/11/29 06:08:14;;;;;;;18.27;3.92;;;5.90;99.90;;;4.91;100.00;101560.19;4249410;28;20058;-79
2022/11/29 06:10:18;;;;;;;16.00;4.65;;;5.90;99.90;;;4.86;100.00;101559.66;4218254;28;20487;-79
2022/11/29 06:12:23;;;;;;;14.23;2.35;;;5.80;99.90;;;4.84;100.00;101556.28;4251083;28;20035;-79
2022/11/29 06:15:01;;;;;;;10.57;2.13;;;5.70;99.90;;;4.77;100.00;101555.03;4233926;28;20553;-80
2022/11/29 06:17:32;;;;;;;9.43;2.85;;;5.80;99.90;;;4.73;100.00;101556.16;4247845;28;20031;-79
2022/11/29 06:20:15;;;;;;;16.73;3.30;;;5.70;99.90;;;4.69;100.00;101567.75;4215963;28;20035;-79
2022/11/29 06:22:54;;;;;;;14.60;3.65;;;5.70;99.90;;;4.71;100.00;101565.88;4215061;28;20048;-79
2022/11/29 06:25:19;;;;;;;12.50;3.47;;;5.70;99.90;;;4.73;100.00;101558.75;4218157;28;20174;-80
2022/11/29 06:27:42;;;;;;;17.05;4.50;;;5.60;99.90;;;4.78;100.00;101552.28;4233671;28;20102;-79
2022/11/29 06:30:17;;;;;;;21.00;4.45;;;5.70;99.90;;;4.83;100.00;101559.84;4219127;28;20032;-80
2022/11/29 06:32:53;;;;;;;13.43;4.15;;;5.80;99.90;;;4.91;100.00;101570.66;4252327;27;20038;-79
2022/11/29 06:35:16;;;;;;;11.52;3.33;;;5.80;99.90;;;4.94;100.00;101570.44;4221385;28;20377;-79
2022/11/29 06:37:39;;;;;;;7.72;1.80;;;5.90;99.90;;;4.76;100.00;101571.63;4251302;27;20033;-79
2022/11/29 06:39:40;;;;;;;5.50;1.70;;;5.80;99.90;;;4.64;100.00;101583.72;4253876;27;20035;-80
2022/11/29 06:41:41;;;;;;;4.55;2.00;;;5.70;99.90;;;4.56;100.00;101575.53;4220964;28;20050;-79
2022/11/29 06:43:43;;;;;;;8.30;1.70;;;5.60;99.90;;;4.57;100.00;101584.22;4236810;28;20027;-80
2022/11/29 06:46:11;;;;;;;11.02;1.80;;;5.60;99.90;;;4.51;100.00;101571.53;4219972;28;20093;-80
2022/11/29 06:48:23;;;;;;;10.25;1.88;;;5.60;99.90;;;4.44;100.00;101576.31;4252410;27;20023;-79
2022/11/29 06:50:52;;;;;;;8.20;2.03;;;5.50;99.90;;;4.41;100.00;101573.88;4252895;27;20027;-79
2022/11/29 06:53:14;;;;;;;10.00;2.90;;;5.40;99.90;;;4.38;100.00;101572.31;4221502;28;20024;-79
2022/11/29 06:55:45;;;;;;;17.25;2.50;;;5.40;99.90;;;4.37;100.00;101575.84;4220906;28;20020;-80
2022/11/29 06:58:04;;;;;;;9.70;2.67;;;5.40;99.90;;;4.38;100.00;101558.41;4252280;27;20065;-80
2022/11/29 07:00:20;;;;;;;11.98;3.38;;;5.30;99.90;;;4.37;100.00;101575.84;4221328;28;20051;-80
2022/11/29 07:02:52;;;;;;;11.93;3.53;;;5.40;99.90;;;4.30;100.00;101571.13;4236123;28;20023;-80
2022/11/29 07:05:02;;;;;;;20.65;5.40;;;5.30;99.90;;;4.26;100.00;101572.22;4213034;28;20044;-79
2022/11/29 07:07:03;;;;;;;15.25;4.47;;;5.20;99.90;;;4.24;100.00;101568.88;4252097;27;20019;-79
2022/11/29 07:09:17;;;;;;;20.20;7.82;;;5.20;99.90;;;4.32;100.00;101572.69;4253548;27;20023;-79
2022/11/29 07:11:18;;;;;;;15.25;5.68;;;5.20;99.90;;;4.35;100.00;101569.03;4219742;28;20458;-78
2022/11/29 07:13:20;;;;;;;16.67;5.63;;;5.20;99.90;;;4.32;100.00;101566.63;4253592;27;20064;-78
2022/11/29 07:15:22;;;;;;;13.35;4.82;;;5.30;99.90;;;4.29;100.00;101565.03;4253787;27;20027;-78
2022/11/29 07:17:32;;;;;;;16.98;4.40;;;5.30;99.90;;;4.31;100.00;101570.16;4253733;27;20019;-78
2022/11/29 07:20:13;;;;;;;12.45;3.60;;;5.20;99.90;;;4.24;100.00;101590.59;4219627;28;20054;-78
2022/11/29 07:22:31;;;;;;;7.53;2.53;;;5.20;99.90;;;4.12;100.00;101583.50;4220714;28;20388;-79
2022/11/29 07:25:00;;;;;;;4.82;1.58;;;5.10;99.90;;;3.89;100.00;101587.53;4220587;28;20519;-79
2022/11/29 07:27:18;;;;;;;6.53;2.13;;;5.00;99.90;;;3.71;100.00;101586.03;4249363;27;20019;-79
2022/11/29 07:29:38;;;;;;;4.32;1.83;;;4.80;99.90;;;3.58;100.00;101589.47;4252931;27;20030;-78
2022/11/29 07:32:16;;;;;;;4.25;2.08;;;4.70;99.90;;;3.44;100.00;101586.81;4210362;28;20030;-78
2022/11/29 07:34:59;;;;;;;4.20;2.10;;;4.50;99.90;;;3.30;100.00;101591.06;4220299;28;20046;-79
2022/11/29 07:37:25;;;;;;;3.55;2.22;;;4.40;99.90;;;3.30;100.00;101590.22;4218888;28;20127;-79
2022/11/29 07:39:52;;;;;;;14.10;4.10;;;4.40;99.90;;;3.31;100.00;101595.38;4218997;28;20024;-78
2022/11/29 07:42:48;;;;;;;9.82;2.97;;;4.30;99.90;;;3.32;100.00;101593.56;4220340;28;20035;-79
2022/11/29 07:45:26;;;;;;;7.65;3.22;;;4.40;99.90;;;3.33;100.00;101593.50;4208609;28;20051;-79
2022/11/29 07:47:27;;;;;;;7.65;3.60;;;4.40;99.90;;;3.37;100.00;101591.56;4219061;28;20042;-78
2022/11/29 07:49:27;;;;;;;10.50;2.95;;;4.40;99.90;;;3.42;100.00;101599.09;4220129;28;20032;-79
2022/11/29 07:51:29;;;;;;;6.03;3.08;;;4.40;99.90;;;3.39;100.00;101599.28;4218833;28;20028;-79
2022/11/29 07:53:31;;;;;;;8.65;4.28;;;4.40;99.90;;;3.44;100.00;101597.22;4218615;28;20032;-79
2022/11/29 07:55:34;;;;;;;40.40;35.90;;;4.40;99.90;;;3.52;100.00;101595.88;4218810;28;20491;-76
2022/11/29 07:57:35;;;;;;;7.60;5.60;;;4.50;99.90;;;3.58;100.00;101599.91;4220128;28;20031;-76
2022/11/29 07:59:36;;;;;;;7.70;4.53;;;4.60;99.90;;;3.69;100.00;101607.91;4218924;28;20095;-76
2022/11/29 08:01:38;;;;;;;5.20;3.63;;;4.60;99.90;;;3.70;100.00;101607.00;4218792;28;20508;-76
2022/11/29 08:03:41;;;;;;;7.35;3.72;;;4.70;99.90;;;3.80;100.00;101603.75;4218654;28;20028;-76
2022/11/29 08:05:46;;;;;;;5.90;3.33;;;4.80;99.90;;;3.89;100.00;101610.16;4201845;28;20120;-76
2022/11/29 08:07:46;;;;;;;7.40;3.13;;;4.90;99.90;;;3.97;100.00;101618.41;4220229;28;20065;-76
2022/11/29 08:09:47;;;;;;;11.27;4.32;;;4.90;99.90;;;4.04;100.00;101624.06;4220113;28;20028;-76
2022/11/29 08:11:48;;;;;;;6.03;3.83;;;5.00;99.90;;;4.07;100.00;101622.13;4219768;28;20031;-76
2022/11/29 08:13:49;;;;;;;6.75;3.78;;;5.00;99.90;;;4.16;100.00;101623.31;4253075;27;20054;-76
2022/11/29 08:15:50;;;;;;;6.80;3.65;;;5.10;99.90;;;4.26;100.00;101621.84;4252633;27;20049;-76
2022/11/29 08:17:52;;;;;;;5.95;3.17;;;5.20;99.90;;;4.33;100.00;101618.75;4219035;28;20028;-76
2022/11/29 08:19:53;;;;;;;9.20;3.10;;;5.30;99.90;;;4.49;100.00;101626.47;4219472;28;20027;-76
2022/11/29 08:21:53;;;;;;;10.10;3.20;;;5.40;99.90;;;4.61;100.00;101623.09;4219809;28;20056;-76
2022/11/29 08:23:54;;;;;;;11.35;3.63;;;5.60;99.90;;;4.78;100.00;101632.50;4219656;28;20558;-76
2022/11/29 08:26:00;;;;;;;8.00;2.92;;;5.70;99.90;;;4.88;100.00;101623.13;4219876;28;20035;-76
2022/11/29 08:28:03;;;;;;;10.73;3.90;;;5.80;99.90;;;5.01;100.00;101634.47;4252050;27;20103;-76
2022/11/29 08:30:05;;;;;;;10.18;3.72;;;5.90;99.90;;;5.11;100.00;101638.16;4252336;27;20028;-76
2022/11/29 08:32:07;;;;;;;13.50;3.70;;;6.00;99.90;;;5.19;100.00;101638.53;4219590;28;20028;-76
2022/11/29 08:34:09;;;;;;;7.05;3.13;;;6.10;99.90;;;5.29;100.00;101641.34;4219273;28;20031;-76
2022/11/29 08:36:14;;;;;;;8.20;3.42;;;6.20;99.90;;;5.40;100.00;101652.81;4219414;28;20433;-76
2022/11/29 08:38:15;;;;;;;8.00;2.75;;;6.30;99.90;;;5.53;100.00;101647.59;4219672;28;20028;-76
2022/11/29 08:40:17;;;;;;;10.23;3.30;;;6.40;99.90;;;5.65;100.00;101651.19;4252047;27;20510;-76
2022/11/29 08:42:18;;;;;;;6.97;3.33;;;6.50;99.90;;;5.83;100.00;101660.41;4252271;27;20113;-76
2022/11/29 08:44:19;;;;;;;9.20;3.60;;;6.70;99.90;;;5.97;100.00;101669.06;4219186;28;20024;-76
2022/11/29 08:46:20;;;;;;;5.88;2.67;;;6.80;99.90;;;6.10;100.00;101674.31;4219489;28;20541;-76
2022/11/29 08:48:20;;;;;;;11.07;3.58;;;7.00;99.90;;;6.22;100.00;101675.25;4252227;27;20075;-76
2022/11/29 08:50:21;;;;;;;8.30;2.95;;;7.10;99.90;;;6.32;100.00;101684.16;4219202;28;20020;-76
2022/11/29 08:54:42;;;;;;;8.95;2.42;;;7.30;99.90;;;6.47;100.00;101691.81;4219500;28;20097;-76
2022/11/29 08:56:43;;;;;;;8.90;2.97;;;7.40;99.90;;;6.57;100.00;101689.38;4252082;27;20438;-76
2022/11/29 08:58:45;;;;;;;10.10;3.70;;;7.50;99.90;;;6.66;100.00;101693.94;4251948;27;20052;-76
2022/11/29 09:00:46;;;;;;;6.68;3.20;;;7.60;99.90;;;6.61;100.00;101690.81;4251691;27;20027;-76
2022/11/29 09:02:47;;;;;;;5.85;3.22;;;7.70;99.90;;;6.55;100.00;101694.72;4252063;27;20037;-76
2022/11/29 09:04:48;;;;;;;10.02;4.28;;;7.60;99.90;;;6.57;100.00;101694.63;4251771;27;20498;-76
2022/11/29 09:06:49;;;;;;;8.38;6.25;;;7.50;99.90;;;6.44;100.00;101697.25;4219047;28;20032;-76
2022/11/29 09:08:50;;;;;;;10.38;6.97;;;7.50;99.90;;;6.50;100.00;101690.75;4251735;27;20023;-76
2022/11/29 09:10:52;;;;;;;8.38;6.78;;;7.50;99.90;;;6.55;100.00;101699.13;4251625;27;20035;-76
2022/11/29 09:12:54;;;;;;;7.43;6.28;;;7.50;99.90;;;6.56;100.00;101693.78;4217816;28;20106;-76
2022/11/29 09:14:55;;;;;;;8.55;6.15;;;7.50;99.90;;;6.63;100.00;101700.25;4218883;28;20051;-76
2022/11/29 09:16:56;;;;;;;10.48;6.32;;;7.50;99.90;;;6.69;100.00;101701.59;4218930;28;20028;-76
2022/11/29 09:18:56;;;;;;;8.80;6.15;;;7.50;99.90;;;6.72;100.00;101692.72;4217986;28;20537;-76
2022/11/29 09:20:58;;;;;;;6.53;5.35;;;7.60;99.90;;;6.74;100.00;101683.78;4218462;28;20027;-76
2022/11/29 09:22:59;;;;;;;6.47;5.60;;;7.60;99.90;;;6.78;100.00;101687.03;4218774;28;20372;-76
2022/11/29 09:25:00;;;;;;;6.47;5.00;;;7.70;99.90;;;6.87;100.00;101683.75;4251568;27;20075;-76